createdAt,value
2019-02-16T00:00:00.486Z,4.70
2019-02-16T00:02:28.650Z,1.70
2019-02-16T00:04:54.902Z,3.37
2019-02-16T00:07:21.135Z,7.77
2019-02-16T00:09:47.390Z,5.17
2019-02-16T00:12:13.737Z,8.27
2019-02-16T00:14:39.975Z,7.57
2019-02-16T00:17:06.243Z,3.23
2019-02-16T00:19:32.593Z,4.37
2019-02-16T00:21:58.921Z,2.10
2019-02-16T00:24:25.260Z,2.90
2019-02-16T00:26:51.533Z,4.80
2019-02-16T00:29:17.764Z,3.40
2019-02-16T00:31:44.065Z,3.73
2019-02-16T00:34:10.308Z,4.33
2019-02-16T00:36:36.650Z,3.80
2019-02-16T00:39:04.018Z,3.77
2019-02-16T00:41:30.387Z,3.40
2019-02-16T00:43:56.614Z,2.80
2019-02-16T00:46:22.863Z,3.10
2019-02-16T00:48:49.095Z,9.73
2019-02-16T00:51:15.325Z,3.73
2019-02-16T00:53:41.556Z,3.17
2019-02-16T00:56:07.814Z,3.57
2019-02-16T00:58:34.108Z,1.90
2019-02-16T01:01:00.525Z,2.23
2019-02-16T01:03:26.927Z,4.17
2019-02-16T01:05:53.166Z,3.23
2019-02-16T01:08:19.488Z,3.13
2019-02-16T01:10:45.818Z,2.60
2019-02-16T01:13:12.047Z,3.60
2019-02-16T01:15:38.309Z,2.07
2019-02-16T01:18:04.692Z,4.07
2019-02-16T01:20:30.914Z,2.73
2019-02-16T01:22:57.400Z,3.17
2019-02-16T01:25:25.051Z,2.12
2019-02-16T01:27:51.379Z,4.07
2019-02-16T01:30:17.698Z,1.73
2019-02-16T01:32:43.961Z,3.37
2019-02-16T01:35:10.249Z,2.10
2019-02-16T01:37:36.481Z,2.33
2019-02-16T01:40:04.918Z,2.50
2019-02-16T01:42:31.254Z,4.23
2019-02-16T01:44:57.577Z,4.07
2019-02-16T01:47:23.821Z,2.90
2019-02-16T01:49:50.057Z,5.40
2019-02-16T01:52:16.390Z,4.17
2019-02-16T01:54:42.651Z,3.47
2019-02-16T01:57:08.875Z,5.57
2019-02-16T01:59:35.101Z,5.97
2019-02-16T02:02:01.341Z,2.70
2019-02-16T02:04:27.572Z,1.70
2019-02-16T02:06:53.850Z,2.50
2019-02-16T02:09:20.305Z,4.10
2019-02-16T02:11:46.628Z,2.07
2019-02-16T02:14:14.070Z,1.72
2019-02-16T02:16:40.406Z,3.97
2019-02-16T02:19:07.651Z,1.50
2019-02-16T02:21:40.816Z,3.93
2019-02-16T02:26:28.195Z,1.63
2019-02-16T02:28:54.490Z,2.50
2019-02-16T02:31:20.847Z,2.17
2019-02-16T02:33:48.209Z,4.72
2019-02-16T02:36:14.555Z,7.80
2019-02-16T02:38:41.013Z,9.17
2019-02-16T02:41:07.342Z,3.07
2019-02-16T02:43:33.679Z,4.03
2019-02-16T02:46:00.040Z,6.60
2019-02-16T02:48:26.371Z,1.50
2019-02-16T02:50:52.695Z,4.70
2019-02-16T02:53:18.946Z,2.67
2019-02-16T02:55:45.187Z,4.07
2019-02-16T02:58:11.441Z,3.17
2019-02-16T03:00:37.702Z,4.43
2019-02-16T03:03:03.958Z,2.47
2019-02-16T03:05:31.296Z,2.83
2019-02-16T03:07:57.625Z,2.80
2019-02-16T03:10:23.946Z,2.97
2019-02-16T03:12:50.212Z,5.80
2019-02-16T03:15:16.476Z,4.80
2019-02-16T03:17:42.708Z,2.93
2019-02-16T03:20:10.091Z,6.45
2019-02-16T03:23:14.630Z,8.30
2019-02-16T03:26:06.215Z,4.30
2019-02-16T03:28:44.918Z,3.37
2019-02-16T03:31:26.981Z,2.67
2019-02-16T03:34:18.491Z,3.83
2019-02-16T03:37:05.053Z,4.33
2019-02-16T03:39:31.841Z,3.93
2019-02-16T03:41:58.217Z,2.27
2019-02-16T03:44:24.476Z,5.07
2019-02-16T03:46:50.829Z,3.77
2019-02-16T03:49:17.062Z,6.00
2019-02-16T03:51:43.320Z,4.73
2019-02-16T03:54:09.659Z,4.50
2019-02-16T03:56:36.006Z,21.97
2019-02-16T03:59:02.238Z,7.90
2019-02-16T04:01:28.474Z,4.00
2019-02-16T04:03:54.719Z,8.37
2019-02-16T04:06:21.053Z,6.00
2019-02-16T04:08:47.394Z,4.87
2019-02-16T04:11:13.649Z,9.57
2019-02-16T04:13:39.996Z,4.53
2019-02-16T04:16:06.378Z,6.20
2019-02-16T04:18:32.636Z,5.67
2019-02-16T04:20:58.999Z,5.87
2019-02-16T04:23:25.327Z,5.10
2019-02-16T04:25:51.668Z,2.70
2019-02-16T04:28:17.933Z,4.20
2019-02-16T04:30:44.225Z,3.23
2019-02-16T04:33:10.558Z,5.60
2019-02-16T04:35:36.803Z,2.93
2019-02-16T04:38:03.145Z,3.00
2019-02-16T04:40:29.486Z,8.50
2019-02-16T04:42:55.811Z,16.53
2019-02-16T04:45:22.225Z,7.67
2019-02-16T04:47:48.556Z,5.07
2019-02-16T04:50:14.882Z,7.60
2019-02-16T04:52:41.227Z,4.60
2019-02-16T04:55:07.450Z,5.03
2019-02-16T04:57:33.794Z,4.10
2019-02-16T05:00:00.434Z,4.77
2019-02-16T05:02:26.779Z,10.10
2019-02-16T05:04:53.160Z,9.57
2019-02-16T05:07:19.530Z,9.20
2019-02-16T05:09:45.953Z,6.33
2019-02-16T05:12:12.199Z,5.83
2019-02-16T05:14:38.565Z,4.73
2019-02-16T05:17:04.968Z,5.27
2019-02-16T05:19:31.302Z,5.13
2019-02-16T05:21:58.102Z,5.90
2019-02-16T05:24:24.364Z,6.13
2019-02-16T05:26:50.694Z,3.77
2019-02-16T05:29:16.942Z,5.70
2019-02-16T05:31:43.180Z,3.93
2019-02-16T05:34:09.521Z,4.83
2019-02-16T05:36:35.776Z,3.90
2019-02-16T05:39:04.110Z,5.37
2019-02-16T05:41:30.373Z,4.58
2019-02-16T05:43:56.722Z,4.57
2019-02-16T05:46:24.621Z,3.27
2019-02-16T05:51:17.328Z,4.70
2019-02-16T05:53:43.734Z,5.23
2019-02-16T05:56:10.073Z,5.47
2019-02-16T05:58:36.366Z,6.07
2019-02-16T06:01:02.862Z,8.73
2019-02-16T06:03:29.111Z,6.87
2019-02-16T06:05:55.449Z,8.40
2019-02-16T06:08:21.790Z,9.07
2019-02-16T06:10:48.134Z,9.90
2019-02-16T06:13:14.478Z,4.63
2019-02-16T06:15:40.828Z,6.80
2019-02-16T06:18:07.157Z,4.00
2019-02-16T06:20:33.481Z,6.30
2019-02-16T06:23:04.436Z,6.33
2019-02-16T06:25:28.686Z,5.17
2019-02-16T06:27:56.232Z,4.70
2019-02-16T06:30:22.507Z,8.43
2019-02-16T06:32:48.921Z,5.20
2019-02-16T06:35:32.383Z,7.13
2019-02-16T06:37:58.715Z,10.27
2019-02-16T06:40:25.125Z,6.90
2019-02-16T06:42:51.451Z,6.57
2019-02-16T06:45:17.777Z,9.57
2019-02-16T06:47:44.005Z,10.93
2019-02-16T06:50:10.271Z,9.60
2019-02-16T06:52:36.660Z,9.30
2019-02-16T06:55:03.313Z,8.20
2019-02-16T06:57:30.531Z,8.63
2019-02-16T06:59:56.858Z,8.30
2019-02-16T07:02:24.393Z,6.10
2019-02-16T07:04:50.667Z,7.53
2019-02-16T07:07:16.997Z,7.77
2019-02-16T07:09:43.247Z,9.67
2019-02-16T07:12:09.487Z,11.60
2019-02-16T07:14:35.820Z,9.70
2019-02-16T07:17:20.501Z,19.23
2019-02-16T07:19:48.736Z,32.37
2019-02-16T07:24:41.383Z,16.33
2019-02-16T07:27:07.638Z,17.80
2019-02-16T07:29:33.986Z,20.43
2019-02-16T07:32:00.342Z,20.20
2019-02-16T07:34:26.594Z,15.07
2019-02-16T07:36:52.827Z,9.23
2019-02-16T07:39:19.235Z,12.73
2019-02-16T07:41:45.564Z,11.27
2019-02-16T07:44:22.667Z,12.77
2019-02-16T07:46:53.885Z,6.10
2019-02-16T07:49:23.184Z,15.37
2019-02-16T07:51:57.789Z,18.70
2019-02-16T07:54:42.342Z,13.03
2019-02-16T07:57:10.611Z,13.53
2019-02-16T08:04:40.940Z,12.33
2019-02-16T08:07:09.098Z,11.27
2019-02-16T08:12:08.153Z,18.50
2019-02-16T08:17:24.063Z,10.53
2019-02-16T08:22:41.426Z,14.53
2019-02-16T08:25:26.594Z,21.00
2019-02-16T08:28:12.729Z,17.33
2019-02-16T08:30:49.949Z,17.77
2019-02-16T08:33:20.880Z,15.93
2019-02-16T08:35:58.361Z,11.07
2019-02-16T08:38:32.597Z,13.48
2019-02-16T08:41:07.182Z,14.63
2019-02-16T08:43:35.433Z,14.13
2019-02-16T08:48:31.781Z,13.10
2019-02-16T08:51:02.952Z,10.80
2019-02-16T08:53:49.388Z,17.40
2019-02-16T08:56:19.371Z,15.77
2019-02-16T08:58:47.649Z,15.43
2019-02-16T09:01:18.650Z,14.17
2019-02-16T09:03:46.787Z,14.47
2019-02-16T09:08:52.108Z,12.67
2019-02-16T09:11:20.343Z,11.90
2019-02-16T09:16:19.337Z,11.90
2019-02-16T09:18:50.726Z,12.23
2019-02-16T09:21:21.650Z,10.90
2019-02-16T09:23:58.870Z,13.27
2019-02-16T09:26:31.222Z,11.40
2019-02-16T09:29:02.479Z,15.23
2019-02-16T09:31:42.727Z,11.50
2019-02-16T09:34:16.626Z,11.20
2019-02-16T09:36:57.097Z,12.23
2019-02-16T09:39:27.789Z,6.73
2019-02-16T09:41:55.915Z,11.47
2019-02-16T09:47:10.101Z,10.65
2019-02-16T09:49:38.355Z,8.03
2019-02-16T09:54:54.051Z,10.25
2019-02-16T09:57:27.895Z,13.00
2019-02-16T10:00:05.125Z,13.90
2019-02-16T10:02:34.759Z,12.00
2019-02-16T10:05:15.378Z,15.53
2019-02-16T10:07:46.140Z,17.07
2019-02-16T10:10:14.369Z,24.23
2019-02-16T10:12:45.237Z,22.67
2019-02-16T10:15:16.269Z,16.42
2019-02-16T10:17:50.062Z,11.10
2019-02-16T10:20:30.390Z,10.10
2019-02-16T10:23:04.385Z,15.00
2019-02-16T10:25:35.416Z,8.35
2019-02-16T10:28:10.637Z,10.68
2019-02-16T10:30:38.993Z,18.77
2019-02-16T10:33:14.656Z,14.23
2019-02-16T10:35:59.733Z,14.03
2019-02-16T10:38:31.228Z,10.95
2019-02-16T10:41:14.473Z,11.35
2019-02-16T10:43:51.406Z,12.73
2019-02-16T10:46:28.712Z,11.12
2019-02-16T10:48:59.472Z,8.88
2019-02-16T10:51:46.159Z,10.72
2019-02-16T10:54:29.087Z,14.33
2019-02-16T10:57:05.747Z,10.65
2019-02-16T10:59:46.250Z,9.38
2019-02-16T11:02:17.313Z,10.93
2019-02-16T11:04:51.596Z,7.85
2019-02-16T11:07:36.353Z,11.57
2019-02-16T11:10:13.638Z,11.15
2019-02-16T11:12:41.871Z,16.23
2019-02-16T11:17:41.972Z,13.83
2019-02-16T11:20:12.931Z,15.83
2019-02-16T11:22:57.678Z,14.85
2019-02-16T11:25:35.650Z,11.83
2019-02-16T11:28:07.441Z,10.98
2019-02-16T11:30:52.050Z,9.68
2019-02-16T11:33:25.858Z,12.30
2019-02-16T11:35:54.080Z,14.87
2019-02-16T11:38:24.965Z,10.65
2019-02-16T11:40:53.193Z,12.23
2019-02-16T11:43:41.057Z,14.28
2019-02-16T11:46:09.326Z,11.88
2019-02-16T11:48:37.555Z,13.45
2019-02-16T11:51:05.783Z,9.78
2019-02-16T11:53:52.415Z,10.43
2019-02-16T11:56:23.635Z,11.15
2019-02-16T11:59:02.764Z,11.75
2019-02-16T12:01:30.965Z,7.30
2019-02-16T12:06:32.968Z,10.88
2019-02-16T12:09:10.243Z,7.62
2019-02-16T12:11:41.149Z,11.15
2019-02-16T12:14:27.120Z,11.83
2019-02-16T12:17:12.121Z,10.60
2019-02-16T12:19:42.908Z,13.43
2019-02-16T12:22:14.163Z,13.32
2019-02-16T12:24:42.421Z,9.23
2019-02-16T12:27:10.666Z,6.47
2019-02-16T12:29:48.028Z,7.25
2019-02-16T12:32:22.521Z,8.88
2019-02-16T12:34:59.921Z,12.25
2019-02-16T12:37:28.123Z,12.00
2019-02-16T12:42:30.700Z,12.68
2019-02-16T12:45:05.096Z,13.65
2019-02-16T12:47:49.702Z,13.03
2019-02-16T12:50:27.042Z,11.60
2019-02-16T12:53:11.661Z,13.88
2019-02-16T12:55:49.149Z,10.03
2019-02-16T12:58:17.434Z,10.23
2019-02-16T13:00:45.657Z,10.88
2019-02-16T13:03:13.785Z,8.40
2019-02-16T13:05:44.802Z,31.70
2019-02-16T13:08:13.080Z,6.87
2019-02-16T13:10:41.298Z,11.55
2019-02-16T13:13:17.344Z,10.48
2019-02-16T13:15:45.562Z,9.85
2019-02-16T13:18:13.709Z,14.07
2019-02-16T13:20:41.864Z,11.35
2019-02-16T13:26:05.104Z,18.25
2019-02-16T13:28:36.129Z,8.73
2019-02-16T13:31:04.362Z,6.45
2019-02-16T13:36:17.405Z,8.35
2019-02-16T13:38:51.367Z,11.18
2019-02-16T13:41:33.628Z,53.63
2019-02-16T13:44:08.560Z,53.40
2019-02-16T13:46:53.357Z,19.73
2019-02-16T13:49:27.484Z,6.87
2019-02-16T13:52:01.921Z,5.97
2019-02-16T13:54:33.148Z,5.83
2019-02-16T13:57:01.389Z,4.62
2019-02-16T14:02:19.729Z,6.35
2019-02-16T14:04:59.973Z,5.45
2019-02-16T14:07:46.525Z,6.08
2019-02-16T14:10:14.660Z,6.37
2019-02-16T14:12:42.886Z,7.03
2019-02-16T14:17:55.898Z,7.05
2019-02-16T14:20:22.153Z,8.50
2019-02-16T14:22:48.694Z,13.90
2019-02-16T14:25:16.833Z,10.08
2019-02-16T14:27:43.090Z,8.83
2019-02-16T14:30:10.554Z,10.75
2019-02-16T14:32:40.404Z,7.80
2019-02-16T14:35:07.041Z,16.42
2019-02-16T14:37:37.756Z,9.95
2019-02-16T14:40:05.505Z,18.32
2019-02-16T14:42:33.041Z,11.18
2019-02-16T14:44:59.282Z,8.98
2019-02-16T14:47:25.531Z,12.28
2019-02-16T14:49:51.878Z,19.02
2019-02-16T14:52:18.180Z,16.87
2019-02-16T14:54:44.489Z,10.60
2019-02-16T14:57:10.738Z,18.17
2019-02-16T14:59:38.419Z,17.32
2019-02-16T15:02:04.733Z,18.52
2019-02-16T15:04:30.964Z,19.25
2019-02-16T15:06:57.339Z,12.53
2019-02-16T15:09:23.730Z,16.12
2019-02-16T15:11:50.242Z,16.35
2019-02-16T15:14:16.578Z,17.80
2019-02-16T15:16:42.801Z,15.28
2019-02-16T15:19:09.064Z,14.85
2019-02-16T15:21:35.301Z,19.07
2019-02-16T15:24:01.544Z,17.30
2019-02-16T15:26:28.845Z,16.67
2019-02-16T15:28:55.359Z,19.57
2019-02-16T15:31:21.592Z,13.25
2019-02-16T15:33:47.853Z,9.95
2019-02-16T15:36:14.102Z,8.55
2019-02-16T15:38:40.351Z,9.10
2019-02-16T15:41:06.646Z,18.48
2019-02-16T15:43:32.935Z,7.83
2019-02-16T15:45:59.168Z,7.75
2019-02-16T15:48:25.518Z,9.05
2019-02-16T15:50:51.824Z,9.33
2019-02-16T15:53:18.069Z,7.42
2019-02-16T15:55:44.318Z,8.28
2019-02-16T15:58:10.562Z,26.93
2019-02-16T16:00:36.950Z,14.58
2019-02-16T16:03:03.272Z,16.12
2019-02-16T16:05:29.665Z,12.23
2019-02-16T16:07:57.902Z,13.85
2019-02-16T16:10:35.461Z,15.45
2019-02-16T16:13:06.378Z,11.88
2019-02-16T16:15:41.730Z,17.15
2019-02-16T16:18:22.954Z,14.70
2019-02-16T16:20:51.323Z,16.10
2019-02-16T16:25:50.332Z,6.40
2019-02-16T16:28:35.498Z,6.83
2019-02-16T16:31:03.723Z,7.60
2019-02-16T16:33:37.377Z,5.75
2019-02-16T16:36:14.378Z,4.00
2019-02-16T16:38:54.529Z,3.33
2019-02-16T16:41:31.767Z,1.55
2019-02-16T16:44:00.077Z,4.10
2019-02-16T16:49:04.838Z,3.83
2019-02-16T16:51:39.026Z,8.43
2019-02-16T16:54:13.049Z,7.45
2019-02-16T16:56:44.242Z,9.85
2019-02-16T16:59:15.511Z,8.15
2019-02-16T17:01:43.730Z,12.73
2019-02-16T17:04:14.679Z,6.17
2019-02-16T17:06:59.772Z,13.83
2019-02-16T17:09:30.993Z,2.17
2019-02-16T17:11:59.154Z,2.70
2019-02-16T17:17:11.990Z,1.65
2019-02-16T17:19:40.161Z,2.27
2019-02-16T17:25:11.189Z,1.35
2019-02-16T17:27:51.709Z,3.00
2019-02-16T17:30:25.905Z,6.12
2019-02-16T17:33:06.297Z,23.18
2019-02-16T17:35:51.150Z,20.77
2019-02-16T17:38:25.138Z,7.10
2019-02-16T17:40:53.358Z,12.58
2019-02-16T17:43:21.496Z,14.58
2019-02-16T17:45:49.902Z,8.63
2019-02-16T17:48:18.051Z,9.58
2019-02-16T17:50:58.313Z,5.05
2019-02-16T17:53:35.083Z,8.03
2019-02-16T17:56:09.125Z,7.80
2019-02-16T17:58:40.082Z,4.25
2019-02-16T18:01:23.243Z,5.95
2019-02-16T18:03:51.481Z,13.03
2019-02-16T18:06:28.843Z,13.58
2019-02-16T18:09:01.675Z,9.98
2019-02-16T18:11:33.509Z,8.48
2019-02-16T18:14:04.434Z,10.98
2019-02-16T18:16:38.847Z,9.23
2019-02-16T18:19:25.553Z,10.38
2019-02-16T18:21:53.717Z,10.00
2019-02-16T18:24:24.955Z,13.95
2019-02-16T18:27:05.255Z,7.78
2019-02-16T18:29:33.490Z,11.53
2019-02-16T18:32:13.393Z,37.03
2019-02-16T18:34:56.547Z,14.38
2019-02-16T18:37:24.810Z,18.10
2019-02-16T18:39:52.946Z,18.80
2019-02-16T18:42:38.069Z,17.15
2019-02-16T18:45:06.595Z,12.03
2019-02-16T18:47:51.609Z,15.68
2019-02-16T18:50:25.536Z,14.33
2019-02-16T18:52:59.997Z,15.93
2019-02-16T18:55:46.535Z,17.98
2019-02-16T18:58:33.195Z,17.02
2019-02-16T19:01:16.383Z,20.68
2019-02-16T19:04:01.561Z,16.12
2019-02-16T19:06:42.124Z,11.83
2019-02-16T19:09:13.269Z,23.40
2019-02-16T19:11:58.113Z,21.27
2019-02-16T19:14:43.302Z,18.37
2019-02-16T19:17:11.456Z,16.80
2019-02-16T19:22:20.062Z,16.80
2019-02-16T19:24:48.328Z,20.85
2019-02-16T19:27:19.477Z,34.18
2019-02-16T19:29:56.844Z,37.63
2019-02-16T19:32:36.974Z,20.30
2019-02-16T19:35:20.398Z,21.30
2019-02-16T19:38:00.665Z,26.73
2019-02-16T19:40:32.427Z,26.97
2019-02-16T19:43:15.458Z,26.75
2019-02-16T19:46:02.153Z,26.55
2019-02-16T19:48:32.923Z,26.10
2019-02-16T19:51:17.961Z,30.82
2019-02-16T19:53:51.921Z,35.23
2019-02-16T19:56:23.198Z,25.02
2019-02-16T19:59:06.772Z,21.68
2019-02-16T20:01:51.615Z,22.75
2019-02-16T20:04:25.576Z,20.72
2019-02-16T20:06:53.802Z,20.27
2019-02-16T20:09:24.820Z,17.20
2019-02-16T20:12:04.921Z,17.17
2019-02-16T20:14:49.681Z,11.00
2019-02-16T20:17:24.207Z,12.82
2019-02-16T20:19:58.618Z,6.53
2019-02-16T20:22:36.188Z,9.83
2019-02-16T20:25:10.309Z,5.28
2019-02-16T20:27:47.444Z,19.27
2019-02-16T20:30:34.087Z,21.07
2019-02-16T20:33:07.889Z,18.85
2019-02-16T20:35:41.872Z,20.32
2019-02-16T20:38:22.132Z,26.85
2019-02-16T20:40:59.278Z,33.00
2019-02-16T20:43:39.086Z,19.73
2019-02-16T20:46:07.313Z,16.48
2019-02-16T20:48:38.330Z,11.68
2019-02-16T20:51:21.270Z,16.25
2019-02-16T20:53:55.561Z,15.60
2019-02-16T20:56:29.774Z,13.88
2019-02-16T20:59:00.861Z,13.70
2019-02-16T21:01:34.539Z,10.38
2019-02-16T21:04:08.229Z,12.95
2019-02-16T21:06:51.835Z,11.53
2019-02-16T21:09:36.783Z,10.43
2019-02-16T21:12:05.022Z,9.23
2019-02-16T21:17:16.377Z,12.07
2019-02-16T21:20:01.140Z,12.33
2019-02-16T21:22:29.426Z,13.03
2019-02-16T21:30:19.545Z,9.63
2019-02-16T21:32:48.021Z,11.63
2019-02-16T21:35:16.300Z,15.70
2019-02-16T21:37:56.513Z,14.05
2019-02-16T21:40:31.060Z,14.87
2019-02-16T21:42:59.385Z,16.90
2019-02-16T21:47:58.416Z,12.50
2019-02-16T21:50:41.950Z,10.43
2019-02-16T21:53:21.471Z,12.23
2019-02-16T21:55:45.984Z,10.70
2019-02-16T22:00:48.213Z,8.80
2019-02-16T22:03:16.347Z,13.90
2019-02-16T22:13:09.612Z,12.55
2019-02-16T22:15:35.971Z,10.58
2019-02-16T22:18:02.298Z,8.80
2019-02-16T22:20:28.566Z,9.88
2019-02-16T22:22:54.888Z,9.28
2019-02-16T22:25:21.492Z,20.45
2019-02-16T22:27:47.901Z,11.25
2019-02-16T22:30:14.153Z,7.92
2019-02-16T22:32:40.407Z,8.05
2019-02-16T22:35:06.734Z,9.18
2019-02-16T22:37:33.057Z,9.33
2019-02-16T22:39:59.366Z,11.57
2019-02-16T22:42:25.626Z,10.80
2019-02-16T22:44:51.965Z,11.90
2019-02-16T22:47:18.214Z,9.53
2019-02-16T22:49:44.569Z,8.80
2019-02-16T22:52:10.818Z,9.75
2019-02-16T22:54:37.135Z,9.88
2019-02-16T22:57:03.357Z,8.10
2019-02-16T22:59:29.665Z,9.68
2019-02-16T23:01:55.992Z,8.60
2019-02-16T23:04:22.229Z,10.40
2019-02-16T23:06:48.471Z,9.25
2019-02-16T23:09:16.894Z,11.40
2019-02-16T23:11:43.121Z,22.70
2019-02-16T23:14:09.360Z,16.42
2019-02-16T23:16:35.647Z,13.25
2019-02-16T23:19:01.971Z,14.00
2019-02-16T23:21:28.302Z,13.95
2019-02-16T23:23:54.613Z,10.35
2019-02-16T23:26:20.948Z,7.65
2019-02-16T23:28:47.180Z,6.78
2019-02-16T23:31:13.476Z,6.80
2019-02-16T23:33:39.702Z,7.50
2019-02-16T23:36:06.044Z,9.68
2019-02-16T23:38:32.353Z,4.35
2019-02-16T23:40:58.621Z,6.12
2019-02-16T23:43:29.686Z,4.87
2019-02-16T23:45:55.918Z,8.23
2019-02-16T23:48:22.157Z,12.27
2019-02-16T23:50:48.390Z,8.93
2019-02-16T23:53:14.643Z,11.63
2019-02-16T23:55:41.040Z,12.23
2019-02-16T23:58:07.297Z,9.98
